createdAt,value
2022-09-15T00:00:36.655Z,16
2022-09-15T00:01:28.630Z,17
2022-09-15T00:02:20.523Z,17
2022-09-15T00:03:12.221Z,18
2022-09-15T00:04:03.996Z,16
2022-09-15T00:04:55.845Z,16
2022-09-15T00:05:47.626Z,16
2022-09-15T00:06:39.461Z,17
2022-09-15T00:07:31.259Z,17
2022-09-15T00:08:23.089Z,18
2022-09-15T00:09:14.871Z,17
2022-09-15T00:10:06.704Z,16
2022-09-15T00:10:58.500Z,16
2022-09-15T00:11:50.295Z,16
2022-09-15T00:12:42.094Z,16
2022-09-15T00:13:33.912Z,15
2022-09-15T00:14:25.717Z,17
2022-09-15T00:15:17.522Z,16
2022-09-15T00:16:09.413Z,16
2022-09-15T00:17:01.304Z,16
2022-09-15T00:17:52.934Z,16
2022-09-15T00:18:44.752Z,16
2022-09-15T00:19:36.481Z,15
2022-09-15T00:20:28.353Z,17
2022-09-15T00:21:20.134Z,16
2022-09-15T00:22:11.965Z,18
2022-09-15T00:23:03.758Z,17
2022-09-15T00:23:55.564Z,16
2022-09-15T00:24:47.346Z,17
2022-09-15T00:25:39.140Z,15
2022-09-15T00:26:30.958Z,17
2022-09-15T00:27:22.758Z,18
2022-09-15T00:28:14.564Z,17
2022-09-15T00:29:06.293Z,16
2022-09-15T00:29:58.159Z,17
2022-09-15T00:30:50.103Z,16
2022-09-15T00:31:41.756Z,15
2022-09-15T00:32:33.576Z,16
2022-09-15T00:33:25.345Z,16
2022-09-15T00:34:17.166Z,15
2022-09-15T00:35:08.954Z,16
2022-09-15T00:36:00.717Z,15
2022-09-15T00:36:52.538Z,16
2022-09-15T00:37:44.357Z,16
2022-09-15T00:38:36.051Z,16
2022-09-15T00:39:27.947Z,16
2022-09-15T00:40:19.842Z,15
2022-09-15T00:41:11.557Z,16
2022-09-15T00:42:03.340Z,16
2022-09-15T00:42:55.140Z,17
2022-09-15T00:43:46.929Z,17
2022-09-15T00:44:38.747Z,15
2022-09-15T00:45:30.588Z,13
2022-09-15T00:46:22.421Z,16
2022-09-15T00:47:19.545Z,17
2022-09-15T00:48:05.919Z,15
2022-09-15T00:48:57.728Z,16
2022-09-15T00:49:49.524Z,16
2022-09-15T00:50:41.305Z,15
2022-09-15T00:51:33.114Z,15
2022-09-15T00:52:24.890Z,15
2022-09-15T00:53:16.622Z,15
2022-09-15T00:54:08.495Z,14
2022-09-15T00:55:00.332Z,14
2022-09-15T00:55:52.072Z,15
2022-09-15T00:56:43.872Z,14
2022-09-15T00:57:35.655Z,14
2022-09-15T00:58:27.471Z,14
2022-09-15T00:59:19.234Z,14
2022-09-15T01:00:11.054Z,14
2022-09-15T01:01:02.839Z,14
2022-09-15T01:01:54.774Z,14
2022-09-15T01:02:46.333Z,14
2022-09-15T01:03:38.221Z,15
2022-09-15T01:04:30.000Z,15
2022-09-15T01:05:21.805Z,17
2022-09-15T01:06:13.755Z,15
2022-09-15T01:07:05.387Z,15
2022-09-15T01:07:57.175Z,14
2022-09-15T01:08:48.975Z,15
2022-09-15T01:09:40.754Z,15
2022-09-15T01:10:32.564Z,13
2022-09-15T01:11:24.336Z,13
2022-09-15T01:12:16.063Z,15
2022-09-15T01:13:07.919Z,15
2022-09-15T01:13:59.748Z,15
2022-09-15T01:14:51.514Z,14
2022-09-15T01:15:43.314Z,14
2022-09-15T01:16:35.157Z,14
2022-09-15T01:17:26.862Z,13
2022-09-15T01:18:18.669Z,13
2022-09-15T01:19:10.478Z,14
2022-09-15T01:20:02.193Z,15
2022-09-15T01:20:54.062Z,15
2022-09-15T01:21:45.867Z,14
2022-09-15T01:22:37.669Z,14
2022-09-15T01:23:29.438Z,13
2022-09-15T01:24:21.231Z,15
2022-09-15T01:25:13.028Z,14
2022-09-15T01:26:04.818Z,13
2022-09-15T01:26:56.518Z,13
2022-09-15T01:27:48.404Z,14
2022-09-15T01:28:40.186Z,15
2022-09-15T01:29:32.004Z,15
2022-09-15T01:30:23.775Z,14
2022-09-15T01:31:15.646Z,14
2022-09-15T01:32:07.362Z,14
2022-09-15T01:32:59.172Z,14
2022-09-15T01:33:50.972Z,14
2022-09-15T01:34:42.759Z,14
2022-09-15T01:35:34.530Z,14
2022-09-15T01:36:26.262Z,15
2022-09-15T01:37:18.118Z,15
2022-09-15T01:38:09.929Z,14
2022-09-15T01:39:01.661Z,14
2022-09-15T01:39:53.599Z,14
2022-09-15T01:40:45.296Z,14
2022-09-15T01:41:37.131Z,12
2022-09-15T01:42:28.885Z,14
2022-09-15T01:43:20.688Z,13
2022-09-15T01:44:12.457Z,13
2022-09-15T01:45:04.257Z,12
2022-09-15T01:45:56.126Z,13
2022-09-15T01:46:47.870Z,13
2022-09-15T01:47:39.618Z,12
2022-09-15T01:48:31.424Z,14
2022-09-15T01:49:23.177Z,13
2022-09-15T01:50:15.003Z,13
2022-09-15T01:51:06.698Z,14
2022-09-15T01:51:58.576Z,15
2022-09-15T01:52:50.356Z,12
2022-09-15T01:53:42.665Z,13
2022-09-15T01:54:33.940Z,14
2022-09-15T01:55:25.726Z,15
2022-09-15T01:56:17.534Z,14
2022-09-15T01:57:09.335Z,14
2022-09-15T01:58:00.994Z,14
2022-09-15T01:58:53.014Z,14
2022-09-15T01:59:44.649Z,14
2022-09-15T02:00:36.410Z,13
2022-09-15T02:01:28.414Z,13
2022-09-15T02:02:20.085Z,13
2022-09-15T02:03:11.793Z,13
2022-09-15T02:04:03.592Z,14
2022-09-15T02:04:55.387Z,13
2022-09-15T02:05:47.173Z,13
2022-09-15T02:06:38.950Z,15
2022-09-15T02:07:30.744Z,15
2022-09-15T02:08:22.528Z,13
2022-09-15T02:09:14.332Z,14
2022-09-15T02:10:06.047Z,15
2022-09-15T02:10:57.896Z,14
2022-09-15T02:11:49.670Z,14
2022-09-15T02:12:41.480Z,14
2022-09-15T02:13:33.241Z,14
2022-09-15T02:14:25.049Z,15
2022-09-15T02:15:16.732Z,14
2022-09-15T02:16:08.638Z,14
2022-09-15T02:17:00.390Z,14
2022-09-15T02:17:52.186Z,15
2022-09-15T02:18:43.960Z,15
2022-09-15T02:19:35.752Z,15
2022-09-15T02:20:27.531Z,14
2022-09-15T02:21:19.328Z,14
2022-09-15T02:22:11.093Z,14
2022-09-15T02:23:02.902Z,14
2022-09-15T02:23:54.644Z,14
2022-09-15T02:24:46.373Z,14
2022-09-15T02:25:38.222Z,15
2022-09-15T02:26:29.998Z,15
2022-09-15T02:27:21.771Z,14
2022-09-15T02:28:13.567Z,14
2022-09-15T02:29:05.338Z,14
2022-09-15T02:29:57.055Z,14
2022-09-15T02:30:48.890Z,13
2022-09-15T02:31:40.739Z,14
2022-09-15T02:32:32.456Z,14
2022-09-15T02:33:24.264Z,14
2022-09-15T02:34:16.012Z,15
2022-09-15T02:35:07.829Z,14
2022-09-15T02:35:59.599Z,13
2022-09-15T02:36:51.374Z,14
2022-09-15T02:37:43.145Z,13
2022-09-15T02:38:34.932Z,12
2022-09-15T02:39:26.659Z,13
2022-09-15T02:40:18.647Z,13
2022-09-15T02:41:10.274Z,12
2022-09-15T02:42:02.073Z,14
2022-09-15T02:42:53.838Z,13
2022-09-15T02:43:45.618Z,14
2022-09-15T02:44:37.410Z,16
2022-09-15T02:45:29.266Z,16
2022-09-15T02:46:20.955Z,15
2022-09-15T02:47:12.774Z,15
2022-09-15T02:48:04.453Z,14
2022-09-15T02:48:56.229Z,14
2022-09-15T02:49:48.064Z,14
2022-09-15T02:50:39.863Z,14
2022-09-15T02:51:31.616Z,15
2022-09-15T02:52:23.424Z,15
2022-09-15T02:53:15.179Z,14
2022-09-15T02:54:06.901Z,14
2022-09-15T02:54:58.703Z,14
2022-09-15T02:55:50.516Z,13
2022-09-15T02:56:42.256Z,13
2022-09-15T02:57:34.076Z,14
2022-09-15T02:58:25.828Z,14
2022-09-15T02:59:17.605Z,13
2022-09-15T03:00:09.352Z,12
2022-09-15T03:01:01.093Z,13
2022-09-15T03:01:53.029Z,14
2022-09-15T03:02:44.705Z,14
2022-09-15T03:03:39.917Z,13
2022-09-15T03:04:28.267Z,13
2022-09-15T03:05:20.039Z,13
2022-09-15T03:06:11.854Z,12
2022-09-15T03:07:03.623Z,13
2022-09-15T03:07:55.411Z,12
2022-09-15T03:08:47.169Z,14
2022-09-15T03:09:38.953Z,13
2022-09-15T03:10:30.739Z,12
2022-09-15T03:11:22.528Z,13
2022-09-15T03:12:14.303Z,13
2022-09-15T03:13:06.098Z,13
2022-09-15T03:13:57.858Z,12
2022-09-15T03:14:49.679Z,12
2022-09-15T03:15:41.429Z,13
2022-09-15T03:16:33.254Z,13
2022-09-15T03:17:24.995Z,13
2022-09-15T03:18:16.721Z,13
2022-09-15T03:19:08.559Z,14
2022-09-15T03:20:00.375Z,15
2022-09-15T03:20:52.154Z,14
2022-09-15T03:21:43.930Z,13
2022-09-15T03:22:35.725Z,12
2022-09-15T03:23:27.511Z,13
2022-09-15T03:24:19.272Z,12
2022-09-15T03:25:11.069Z,12
2022-09-15T03:26:02.846Z,13
2022-09-15T03:26:54.638Z,12
2022-09-15T03:27:46.324Z,12
2022-09-15T03:28:38.212Z,12
2022-09-15T03:29:29.983Z,13
2022-09-15T03:30:21.789Z,13
2022-09-15T03:31:13.566Z,13
2022-09-15T03:32:05.358Z,12
2022-09-15T03:32:57.133Z,12
2022-09-15T03:33:48.952Z,12
2022-09-15T03:34:40.691Z,12
2022-09-15T03:35:32.519Z,12
2022-09-15T03:36:24.288Z,13
2022-09-15T03:37:16.075Z,13
2022-09-15T03:38:07.842Z,11
2022-09-15T03:38:59.646Z,11
2022-09-15T03:39:51.468Z,11
2022-09-15T03:40:43.205Z,14
2022-09-15T03:41:34.979Z,13
2022-09-15T03:42:26.711Z,12
2022-09-15T03:43:18.803Z,12
2022-09-15T03:44:10.355Z,12
2022-09-15T03:45:02.116Z,12
2022-09-15T03:45:53.988Z,13
2022-09-15T03:46:45.685Z,12
2022-09-15T03:47:37.520Z,11
2022-09-15T03:48:29.250Z,12
2022-09-15T03:49:21.056Z,11
2022-09-15T03:50:12.832Z,12
2022-09-15T03:51:04.616Z,13
2022-09-15T03:51:56.321Z,12
2022-09-15T03:52:48.186Z,12
2022-09-15T03:53:39.970Z,12
2022-09-15T03:54:31.766Z,14
2022-09-15T03:55:23.512Z,15
2022-09-15T03:56:15.297Z,14
2022-09-15T03:57:07.091Z,12
2022-09-15T03:57:58.862Z,13
2022-09-15T03:58:50.646Z,12
2022-09-15T03:59:42.441Z,12
2022-09-15T04:00:34.239Z,13
2022-09-15T04:01:25.985Z,11
2022-09-15T04:02:17.816Z,12
2022-09-15T04:03:09.546Z,12
2022-09-15T04:04:01.219Z,12
2022-09-15T04:04:53.107Z,12
2022-09-15T04:05:44.879Z,12
2022-09-15T04:06:36.593Z,12
2022-09-15T04:07:28.445Z,14
2022-09-15T04:08:20.227Z,14
2022-09-15T04:09:11.999Z,13
2022-09-15T04:10:03.813Z,14
2022-09-15T04:10:55.570Z,12
2022-09-15T04:11:47.373Z,11
2022-09-15T04:12:39.123Z,13
2022-09-15T04:13:30.927Z,12
2022-09-15T04:14:22.677Z,12
2022-09-15T04:15:14.512Z,12
2022-09-15T04:16:06.244Z,13
2022-09-15T04:16:58.052Z,13
2022-09-15T04:17:49.809Z,15
2022-09-15T04:18:41.607Z,14
2022-09-15T04:19:33.380Z,14
2022-09-15T04:20:25.169Z,13
2022-09-15T04:21:16.867Z,13
2022-09-15T04:22:08.724Z,14
2022-09-15T04:23:00.515Z,12
2022-09-15T04:23:52.431Z,15
2022-09-15T04:24:44.073Z,14
2022-09-15T04:25:35.851Z,14
2022-09-15T04:26:27.614Z,14
2022-09-15T04:27:19.414Z,13
2022-09-15T04:28:11.183Z,14
2022-09-15T04:29:04.592Z,13
2022-09-15T04:29:54.731Z,13
2022-09-15T04:30:46.452Z,13
2022-09-15T04:31:38.314Z,14
2022-09-15T04:32:30.082Z,14
2022-09-15T04:33:21.869Z,13
2022-09-15T04:34:13.653Z,14
2022-09-15T04:35:05.411Z,14
2022-09-15T04:35:57.121Z,15
2022-09-15T04:36:48.981Z,16
2022-09-15T04:37:40.807Z,15
2022-09-15T04:38:32.537Z,14
2022-09-15T04:39:24.319Z,14
2022-09-15T04:40:16.136Z,14
2022-09-15T04:41:07.880Z,15
2022-09-15T04:41:59.683Z,15
2022-09-15T04:42:51.462Z,15
2022-09-15T04:43:43.222Z,14
2022-09-15T04:44:35.015Z,15
2022-09-15T04:45:26.691Z,14
2022-09-15T04:46:18.679Z,16
2022-09-15T04:47:10.293Z,14
2022-09-15T04:48:02.172Z,16
2022-09-15T04:48:54.038Z,16
2022-09-15T04:49:45.723Z,15
2022-09-15T04:50:37.502Z,15
2022-09-15T04:51:29.298Z,16
2022-09-15T04:52:21.060Z,15
2022-09-15T04:53:12.847Z,14
2022-09-15T04:54:04.628Z,14
2022-09-15T04:54:56.389Z,15
2022-09-15T04:55:48.190Z,14
2022-09-15T04:56:39.980Z,15
2022-09-15T04:57:31.741Z,15
2022-09-15T04:58:23.562Z,15
2022-09-15T04:59:15.310Z,15
2022-09-15T05:00:07.060Z,15
2022-09-15T05:00:58.904Z,15
2022-09-15T05:01:50.723Z,15
2022-09-15T05:02:42.448Z,16
2022-09-15T05:03:34.250Z,16
2022-09-15T05:04:26.013Z,16
2022-09-15T05:05:17.821Z,15
2022-09-15T05:06:09.583Z,14
2022-09-15T05:07:01.378Z,16
2022-09-15T05:07:53.139Z,17
2022-09-15T05:08:44.979Z,17
2022-09-15T05:09:36.638Z,16
2022-09-15T05:10:28.481Z,16
2022-09-15T05:11:20.263Z,16
2022-09-15T05:12:12.032Z,17
2022-09-15T05:13:03.811Z,15
2022-09-15T05:13:55.591Z,14
2022-09-15T05:14:47.352Z,17
2022-09-15T05:15:39.139Z,15
2022-09-15T05:16:30.967Z,14
2022-09-15T05:17:26.143Z,14
2022-09-15T05:18:14.467Z,14
2022-09-15T05:19:06.279Z,16
2022-09-15T05:19:58.007Z,17
2022-09-15T05:20:49.808Z,17
2022-09-15T05:21:41.581Z,15
2022-09-15T05:22:33.359Z,16
2022-09-15T05:23:25.121Z,15
2022-09-15T05:24:16.885Z,15
2022-09-15T05:25:08.685Z,14
2022-09-15T05:26:00.477Z,15
2022-09-15T05:26:52.237Z,14
2022-09-15T05:27:44.018Z,14
2022-09-15T05:28:35.800Z,14
2022-09-15T05:29:27.585Z,16
2022-09-15T05:30:36.792Z,16
2022-09-15T05:31:11.233Z,15
2022-09-15T05:32:02.912Z,15
2022-09-15T05:32:54.728Z,15
2022-09-15T05:33:46.489Z,14
2022-09-15T05:34:38.277Z,14
2022-09-15T05:35:30.054Z,14
2022-09-15T05:36:21.856Z,14
2022-09-15T05:37:13.619Z,12
2022-09-15T05:38:05.406Z,14
2022-09-15T05:38:57.169Z,15
2022-09-15T05:39:49.037Z,14
2022-09-15T05:40:40.759Z,14
2022-09-15T05:41:32.546Z,15
2022-09-15T05:42:24.317Z,15
2022-09-15T05:43:16.104Z,13
2022-09-15T05:44:07.880Z,15
2022-09-15T05:44:59.679Z,15
2022-09-15T05:45:51.440Z,15
2022-09-15T05:46:43.267Z,14
2022-09-15T05:47:35.004Z,13
2022-09-15T05:48:26.715Z,12
2022-09-15T05:49:18.566Z,15
2022-09-15T05:50:10.372Z,14
2022-09-15T05:51:02.133Z,13
2022-09-15T05:51:53.931Z,13
2022-09-15T05:52:45.699Z,14
2022-09-15T05:53:37.498Z,13
2022-09-15T05:54:29.270Z,13
2022-09-15T05:55:21.056Z,14
2022-09-15T05:56:12.835Z,13
2022-09-15T05:57:04.627Z,14
2022-09-15T05:57:56.411Z,13
2022-09-15T05:58:48.209Z,14
2022-09-15T05:59:39.957Z,12
2022-09-15T06:00:31.757Z,14
2022-09-15T06:01:23.641Z,13
2022-09-15T06:02:15.409Z,13
2022-09-15T06:03:07.061Z,13
2022-09-15T06:03:58.877Z,12
2022-09-15T06:04:50.656Z,14
2022-09-15T06:05:42.443Z,13
2022-09-15T06:06:34.230Z,12
2022-09-15T06:07:26.029Z,13
2022-09-15T06:08:17.784Z,12
2022-09-15T06:09:09.593Z,13
2022-09-15T06:10:01.316Z,11
2022-09-15T06:10:53.161Z,11
2022-09-15T06:11:44.934Z,12
2022-09-15T06:12:36.635Z,11
2022-09-15T06:13:28.493Z,12
2022-09-15T06:14:20.284Z,12
2022-09-15T06:15:12.051Z,11
2022-09-15T06:16:03.975Z,11
2022-09-15T06:16:55.616Z,12
2022-09-15T06:17:47.431Z,12
2022-09-15T06:18:39.189Z,12
2022-09-15T06:19:30.983Z,12
2022-09-15T06:20:22.757Z,10
2022-09-15T06:21:14.548Z,12
2022-09-15T06:22:06.315Z,11
2022-09-15T06:22:58.119Z,10
2022-09-15T06:23:50.894Z,11
2022-09-15T06:24:41.682Z,11
2022-09-15T06:25:33.459Z,11
2022-09-15T06:26:25.266Z,11
2022-09-15T06:27:16.960Z,11
2022-09-15T06:28:08.824Z,11
2022-09-15T06:29:00.598Z,11
2022-09-15T06:29:52.417Z,10
2022-09-15T06:30:44.165Z,11
2022-09-15T06:31:36.028Z,9
2022-09-15T06:32:27.734Z,10
2022-09-15T06:33:19.548Z,11
2022-09-15T06:34:11.334Z,15
2022-09-15T06:35:03.025Z,13
2022-09-15T06:35:54.873Z,11
2022-09-15T06:36:46.597Z,12
2022-09-15T06:37:38.430Z,12
2022-09-15T06:38:30.236Z,12
2022-09-15T06:39:22.021Z,11
2022-09-15T06:40:13.852Z,10
2022-09-15T06:41:05.576Z,11
2022-09-15T06:42:02.238Z,10
2022-09-15T06:42:49.136Z,10
2022-09-15T06:43:40.937Z,10
2022-09-15T06:44:32.707Z,10
2022-09-15T06:45:24.514Z,10
2022-09-15T06:46:16.352Z,9
2022-09-15T06:47:08.124Z,8
2022-09-15T06:48:22.862Z,10
2022-09-15T06:48:51.664Z,11
2022-09-15T06:49:43.421Z,9
2022-09-15T06:50:35.228Z,10
2022-09-15T06:51:26.936Z,10
2022-09-15T06:52:18.797Z,9
2022-09-15T06:53:10.586Z,9
2022-09-15T06:54:02.371Z,10
2022-09-15T06:54:54.142Z,10
2022-09-15T06:55:45.929Z,10
2022-09-15T06:56:38.304Z,9
2022-09-15T06:57:29.515Z,9
2022-09-15T06:58:21.267Z,10
2022-09-15T06:59:13.085Z,9
2022-09-15T07:00:04.788Z,10
2022-09-15T07:00:56.619Z,9
2022-09-15T07:01:48.453Z,10
2022-09-15T07:02:40.374Z,10
2022-09-15T07:03:32.084Z,9
2022-09-15T07:04:23.717Z,9
2022-09-15T07:05:15.526Z,10
2022-09-15T07:06:07.286Z,10
2022-09-15T07:06:59.080Z,10
2022-09-15T07:07:50.898Z,10
2022-09-15T07:08:42.745Z,10
2022-09-15T07:09:34.447Z,11
2022-09-15T07:10:26.267Z,11
2022-09-15T07:11:17.998Z,10
2022-09-15T07:12:09.784Z,10
2022-09-15T07:13:01.457Z,11
2022-09-15T07:13:53.458Z,10
2022-09-15T07:14:45.113Z,10
2022-09-15T07:15:36.797Z,11
2022-09-15T07:16:28.725Z,9
2022-09-15T07:17:20.461Z,10
2022-09-15T07:18:12.238Z,9
2022-09-15T07:19:04.014Z,10
2022-09-15T07:19:55.807Z,10
2022-09-15T07:20:47.503Z,10
2022-09-15T07:21:39.379Z,11
2022-09-15T07:22:31.147Z,9
2022-09-15T07:23:22.933Z,9
2022-09-15T07:24:14.681Z,8
2022-09-15T07:25:06.404Z,8
2022-09-15T07:25:58.249Z,8
2022-09-15T07:26:50.061Z,9
2022-09-15T07:27:41.809Z,7
2022-09-15T07:28:33.605Z,8
2022-09-15T07:29:25.378Z,9
2022-09-15T07:30:17.082Z,9
2022-09-15T07:31:09.162Z,8
2022-09-15T07:32:00.796Z,9
2022-09-15T07:32:52.482Z,9
2022-09-15T07:33:44.386Z,7
2022-09-15T07:34:36.031Z,7
2022-09-15T07:35:27.844Z,8
2022-09-15T07:36:19.590Z,8
2022-09-15T07:37:11.380Z,7
2022-09-15T07:38:03.150Z,7
2022-09-15T07:38:54.947Z,8
2022-09-15T07:39:46.723Z,8
2022-09-15T07:40:38.613Z,7
2022-09-15T07:41:30.254Z,7
2022-09-15T07:42:22.055Z,7
2022-09-15T07:43:13.820Z,7
2022-09-15T07:44:05.633Z,7
2022-09-15T07:44:57.312Z,6
2022-09-15T07:45:49.233Z,6
2022-09-15T07:46:40.961Z,6
2022-09-15T07:47:32.748Z,6
2022-09-15T07:48:26.584Z,7
2022-09-15T07:49:16.328Z,7
2022-09-15T07:50:08.084Z,7
2022-09-15T07:50:59.914Z,7
2022-09-15T07:51:51.639Z,6
2022-09-15T07:52:43.450Z,6
2022-09-15T07:53:35.213Z,6
2022-09-15T07:54:26.955Z,5
2022-09-15T07:55:18.765Z,7
2022-09-15T07:56:10.567Z,6
2022-09-15T07:57:02.334Z,5
2022-09-15T07:57:54.118Z,7
2022-09-15T07:58:45.885Z,6
2022-09-15T07:59:41.037Z,7
2022-09-15T08:00:29.465Z,6
2022-09-15T08:01:21.305Z,7
2022-09-15T08:02:13.035Z,7
2022-09-15T08:03:04.816Z,7
2022-09-15T08:03:56.606Z,7
2022-09-15T08:04:48.368Z,7
2022-09-15T08:05:44.787Z,6
2022-09-15T08:06:31.942Z,5
2022-09-15T08:07:23.697Z,6
2022-09-15T08:08:15.509Z,5
2022-09-15T08:09:07.182Z,5
2022-09-15T08:09:59.049Z,6
2022-09-15T08:10:50.827Z,6
2022-09-15T08:11:42.605Z,7
2022-09-15T08:12:34.380Z,7
2022-09-15T08:13:26.183Z,5
2022-09-15T08:14:17.936Z,5
2022-09-15T08:15:09.729Z,5
2022-09-15T08:16:01.609Z,5
2022-09-15T08:16:53.292Z,5
2022-09-15T08:17:45.053Z,5
2022-09-15T08:18:36.776Z,7
2022-09-15T08:19:28.636Z,5
2022-09-15T08:20:20.498Z,5
2022-09-15T08:21:12.167Z,5
2022-09-15T08:22:03.968Z,5
2022-09-15T08:22:55.729Z,5
2022-09-15T08:23:47.524Z,6
2022-09-15T08:24:39.311Z,5
2022-09-15T08:25:31.099Z,4
2022-09-15T08:26:22.867Z,4
2022-09-15T08:27:14.673Z,3
2022-09-15T08:28:06.423Z,5
2022-09-15T08:28:58.213Z,5
2022-09-15T08:29:49.968Z,4
2022-09-15T08:30:41.767Z,4
2022-09-15T08:31:33.594Z,3
2022-09-15T08:32:25.347Z,6
2022-09-15T08:33:17.037Z,5
2022-09-15T08:34:08.922Z,5
2022-09-15T08:35:00.684Z,5
2022-09-15T08:35:52.490Z,4
2022-09-15T08:36:44.248Z,3
2022-09-15T08:37:36.070Z,3
2022-09-15T08:38:27.823Z,4
2022-09-15T08:39:19.632Z,4
2022-09-15T08:40:11.508Z,5
2022-09-15T08:41:03.214Z,4
2022-09-15T08:41:54.994Z,4
2022-09-15T08:42:46.782Z,4
2022-09-15T08:43:38.577Z,3
2022-09-15T08:44:30.370Z,4
2022-09-15T08:45:22.155Z,4
2022-09-15T08:46:14.017Z,5
2022-09-15T08:47:05.826Z,5
2022-09-15T08:47:57.535Z,4
2022-09-15T08:48:49.323Z,5
2022-09-15T08:49:51.605Z,5
2022-09-15T08:50:32.970Z,4
2022-09-15T08:51:24.730Z,4
2022-09-15T08:52:16.508Z,5
2022-09-15T08:53:08.330Z,5
2022-09-15T08:54:00.107Z,4
2022-09-15T08:54:51.917Z,5
2022-09-15T08:55:43.697Z,3
2022-09-15T08:56:35.516Z,4
2022-09-15T08:57:27.210Z,3
2022-09-15T08:58:19.096Z,4
2022-09-15T08:59:10.878Z,4
2022-09-15T09:00:02.718Z,5
2022-09-15T09:00:54.466Z,5
2022-09-15T09:01:46.386Z,3
2022-09-15T09:02:38.095Z,5
2022-09-15T09:03:29.879Z,5
2022-09-15T09:04:21.657Z,6
2022-09-15T09:05:13.470Z,4
2022-09-15T09:06:05.261Z,4
2022-09-15T09:06:56.988Z,5
2022-09-15T09:07:48.855Z,4
2022-09-15T09:08:40.679Z,4
2022-09-15T09:09:32.511Z,4
2022-09-15T09:10:24.267Z,3
2022-09-15T09:11:16.042Z,3
2022-09-15T09:12:07.848Z,4
2022-09-15T09:12:59.639Z,4
2022-09-15T09:13:51.450Z,5
2022-09-15T09:14:43.248Z,3
2022-09-15T09:15:35.117Z,3
2022-09-15T09:16:26.801Z,6
2022-09-15T09:17:18.639Z,5
2022-09-15T09:18:10.430Z,4
2022-09-15T09:19:02.235Z,5
2022-09-15T09:19:54.024Z,4
2022-09-15T09:20:45.823Z,4
2022-09-15T09:21:37.553Z,5
2022-09-15T09:22:29.416Z,5
2022-09-15T09:23:21.229Z,5
2022-09-15T09:24:13.018Z,5
2022-09-15T09:25:16.236Z,6
2022-09-15T09:25:56.620Z,5
2022-09-15T09:26:48.418Z,5
2022-09-15T09:27:40.293Z,4
2022-09-15T09:28:32.026Z,3
2022-09-15T09:29:23.830Z,5
2022-09-15T09:30:15.621Z,5
2022-09-15T09:31:07.390Z,5
2022-09-15T09:31:59.223Z,5
2022-09-15T09:32:51.058Z,5
2022-09-15T09:33:47.322Z,5
2022-09-15T09:34:34.643Z,5
2022-09-15T09:35:26.437Z,5
2022-09-15T09:36:18.244Z,5
2022-09-15T09:37:10.040Z,4
2022-09-15T09:38:01.770Z,6
2022-09-15T09:38:53.648Z,5
2022-09-15T09:39:45.536Z,5
2022-09-15T09:40:37.302Z,6
2022-09-15T09:41:29.059Z,4
2022-09-15T09:42:20.857Z,4
2022-09-15T09:43:12.677Z,5
2022-09-15T09:44:04.476Z,4
2022-09-15T09:44:56.285Z,3
2022-09-15T09:45:48.124Z,4
2022-09-15T09:46:40.022Z,5
2022-09-15T09:47:31.681Z,3
2022-09-15T09:48:23.497Z,3
2022-09-15T09:49:15.283Z,4
2022-09-15T09:50:07.055Z,6
2022-09-15T09:50:58.890Z,5
2022-09-15T09:51:50.717Z,5
2022-09-15T09:52:42.513Z,5
2022-09-15T09:53:34.337Z,6
2022-09-15T09:54:26.134Z,5
2022-09-15T09:55:17.920Z,5
2022-09-15T09:56:09.723Z,5
2022-09-15T09:57:01.502Z,6
2022-09-15T09:57:53.340Z,5
2022-09-15T09:58:45.164Z,5
2022-09-15T09:59:36.978Z,5
2022-09-15T10:00:28.775Z,5
2022-09-15T10:01:20.651Z,6
2022-09-15T10:02:12.386Z,6
2022-09-15T10:03:04.193Z,6
2022-09-15T10:03:55.992Z,6
2022-09-15T10:04:47.838Z,6
2022-09-15T10:05:39.618Z,6
2022-09-15T10:06:31.398Z,5
2022-09-15T10:07:23.229Z,5
2022-09-15T10:08:15.034Z,5
2022-09-15T10:09:06.910Z,6
2022-09-15T10:09:58.641Z,5
2022-09-15T10:10:50.467Z,6
2022-09-15T10:11:42.279Z,4
2022-09-15T10:12:34.069Z,5
2022-09-15T10:13:25.869Z,5
2022-09-15T10:14:17.626Z,5
2022-09-15T10:15:09.485Z,4
2022-09-15T10:16:01.388Z,3
2022-09-15T10:16:53.164Z,3
2022-09-15T10:17:44.915Z,3
2022-09-15T10:18:36.711Z,3
2022-09-15T10:19:28.537Z,5
2022-09-15T10:20:20.364Z,5
2022-09-15T10:21:12.162Z,5
2022-09-15T10:22:03.954Z,5
2022-09-15T10:22:55.790Z,5
2022-09-15T10:23:47.489Z,4
2022-09-15T10:24:39.427Z,4
2022-09-15T10:25:44.517Z,6
2022-09-15T10:26:23.013Z,5
2022-09-15T10:27:14.817Z,5
2022-09-15T10:28:06.640Z,5
2022-09-15T10:28:58.447Z,8
2022-09-15T10:29:50.265Z,5
2022-09-15T10:30:42.074Z,4
2022-09-15T10:31:34.071Z,3
2022-09-15T10:32:25.983Z,4
2022-09-15T10:33:17.447Z,4
2022-09-15T10:34:09.331Z,4
2022-09-15T10:35:01.173Z,4
2022-09-15T10:35:52.969Z,5
2022-09-15T10:36:44.791Z,4
2022-09-15T10:37:36.586Z,5
2022-09-15T10:38:28.403Z,5
2022-09-15T10:39:20.200Z,4
2022-09-15T10:40:12.130Z,4
2022-09-15T10:41:03.832Z,3
2022-09-15T10:41:55.661Z,4
2022-09-15T10:42:47.457Z,3
2022-09-15T10:43:39.284Z,3
2022-09-15T10:44:31.078Z,3
2022-09-15T10:45:22.971Z,3
2022-09-15T10:46:14.749Z,4
2022-09-15T10:47:06.528Z,3
2022-09-15T10:47:58.342Z,3
2022-09-15T10:48:50.156Z,4
2022-09-15T10:49:41.960Z,5
2022-09-15T10:50:33.788Z,4
2022-09-15T10:51:25.613Z,5
2022-09-15T10:52:17.349Z,4
2022-09-15T10:53:09.218Z,4
2022-09-15T10:54:01.018Z,3
2022-09-15T10:54:52.856Z,3
2022-09-15T10:55:52.911Z,4
2022-09-15T10:56:36.483Z,3
2022-09-15T10:57:28.325Z,3
2022-09-15T10:58:20.141Z,3
2022-09-15T10:59:11.960Z,3
2022-09-15T11:00:03.797Z,4
2022-09-15T11:00:55.625Z,3
2022-09-15T11:01:47.388Z,3
2022-09-15T11:02:39.269Z,3
2022-09-15T11:03:31.074Z,3
2022-09-15T11:04:22.899Z,3
2022-09-15T11:05:16.873Z,3
2022-09-15T11:06:06.689Z,3
2022-09-15T11:06:58.352Z,3
2022-09-15T11:07:50.192Z,4
2022-09-15T11:08:42.109Z,3
2022-09-15T11:09:33.843Z,3
2022-09-15T11:10:25.666Z,3
2022-09-15T11:11:17.481Z,3
2022-09-15T11:12:09.318Z,3
2022-09-15T11:13:01.155Z,3
2022-09-15T11:13:52.959Z,4
2022-09-15T11:14:44.796Z,4
2022-09-15T11:15:36.616Z,3
2022-09-15T11:16:28.508Z,3
2022-09-15T11:17:20.266Z,4
2022-09-15T11:18:12.115Z,3
2022-09-15T11:19:03.913Z,3
2022-09-15T11:19:55.764Z,5
2022-09-15T11:20:47.509Z,4
2022-09-15T11:21:39.439Z,3
2022-09-15T11:22:31.243Z,6
2022-09-15T11:23:23.095Z,4
2022-09-15T11:24:14.897Z,4
2022-09-15T11:25:06.672Z,3
2022-09-15T11:25:58.567Z,4
2022-09-15T11:26:50.401Z,5
2022-09-15T11:27:42.219Z,3
2022-09-15T11:28:34.060Z,5
2022-09-15T11:29:25.878Z,3
2022-09-15T11:30:17.642Z,3
2022-09-15T11:31:09.596Z,3
2022-09-15T11:32:55.743Z,4
2022-09-15T11:33:45.100Z,3
2022-09-15T11:34:36.848Z,4
2022-09-15T11:35:28.698Z,3
2022-09-15T11:36:20.503Z,3
2022-09-15T11:37:12.355Z,3
2022-09-15T11:38:04.158Z,4
2022-09-15T11:38:56.001Z,3
2022-09-15T11:39:47.785Z,3
2022-09-15T11:40:39.653Z,4
2022-09-15T11:41:31.468Z,3
2022-09-15T11:42:23.313Z,3
2022-09-15T11:43:15.135Z,4
2022-09-15T11:44:06.962Z,3
2022-09-15T11:44:58.787Z,3
2022-09-15T11:45:50.597Z,3
2022-09-15T11:46:42.500Z,4
2022-09-15T11:47:34.250Z,4
2022-09-15T11:48:26.060Z,3
2022-09-15T11:49:17.873Z,3
2022-09-15T11:50:09.722Z,3
2022-09-15T11:51:01.517Z,3
2022-09-15T11:51:53.382Z,3
2022-09-15T11:52:45.210Z,3
2022-09-15T11:53:37.025Z,3
2022-09-15T11:54:31.325Z,3
2022-09-15T11:55:20.681Z,3
2022-09-15T11:56:12.496Z,3
2022-09-15T11:57:04.324Z,4
2022-09-15T11:57:56.143Z,3
2022-09-15T11:58:47.959Z,3
2022-09-15T11:59:39.792Z,3
2022-09-15T12:00:31.602Z,3
2022-09-15T12:01:23.441Z,5
2022-09-15T12:02:15.306Z,4
2022-09-15T12:03:07.120Z,3
2022-09-15T12:03:58.907Z,4
2022-09-15T12:04:50.743Z,3
2022-09-15T12:05:42.551Z,3
2022-09-15T12:06:34.381Z,3
2022-09-15T12:07:26.204Z,4
2022-09-15T12:08:17.951Z,3
2022-09-15T12:09:09.839Z,3
2022-09-15T12:10:01.642Z,3
2022-09-15T12:10:53.482Z,2
2022-09-15T12:11:45.351Z,2
2022-09-15T12:12:37.137Z,3
2022-09-15T12:13:28.978Z,3
2022-09-15T12:14:20.781Z,3
2022-09-15T12:15:12.624Z,3
2022-09-15T12:16:05.124Z,3
2022-09-15T12:16:56.271Z,3
2022-09-15T12:17:47.998Z,3
2022-09-15T12:18:41.894Z,3
2022-09-15T12:19:31.750Z,3
2022-09-15T12:20:23.572Z,3
2022-09-15T12:21:15.391Z,3
2022-09-15T12:22:07.177Z,3
2022-09-15T12:22:59.035Z,3
2022-09-15T12:23:51.035Z,3
2022-09-15T12:24:42.683Z,3
2022-09-15T12:25:34.530Z,2
2022-09-15T12:26:26.335Z,3
2022-09-15T12:27:18.186Z,3
2022-09-15T12:28:09.998Z,3
2022-09-15T12:29:01.764Z,3
2022-09-15T12:29:53.631Z,3
2022-09-15T12:30:45.477Z,3